sensor_id;sensor_type;location;lat;lon;timestamp;temperature;humidity
16076;DHT22;8142;48.242;11.644;2023-04-03T00:02:19;4.50;99.90
16076;DHT22;8142;48.242;11.644;2023-04-03T00:04:45;4.50;99.90
16076;DHT22;8142;48.242;11.644;2023-04-03T00:07:11;4.50;99.90
16076;DHT22;8142;48.242;11.644;2023-04-03T00:09:38;4.50;99.90
16076;DHT22;8142;48.242;11.644;2023-04-03T00:12:04;4.50;99.90
16076;DHT22;8142;48.242;11.644;2023-04-03T00:14:30;4.40;99.90
16076;DHT22;8142;48.242;11.644;2023-04-03T00:16:56;4.40;99.90
16076;DHT22;8142;48.242;11.644;2023-04-03T00:19:22;4.40;99.90
16076;DHT22;8142;48.242;11.644;2023-04-03T00:21:47;4.40;99.90
16076;DHT22;8142;48.242;11.644;2023-04-03T00:24:13;4.50;99.90
16076;DHT22;8142;48.242;11.644;2023-04-03T00:26:40;4.50;99.90
16076;DHT22;8142;48.242;11.644;2023-04-03T00:29:05;4.40;99.90
16076;DHT22;8142;48.242;11.644;2023-04-03T00:31:31;4.50;99.90
16076;DHT22;8142;48.242;11.644;2023-04-03T00:33:58;4.50;99.90
16076;DHT22;8142;48.242;11.644;2023-04-03T00:36:23;4.50;99.90
16076;DHT22;8142;48.242;11.644;2023-04-03T00:38:50;4.40;99.90
16076;DHT22;8142;48.242;11.644;2023-04-03T00:41:16;4.40;99.90
16076;DHT22;8142;48.242;11.644;2023-04-03T00:43:42;4.40;99.90
16076;DHT22;8142;48.242;11.644;2023-04-03T00:46:08;4.40;99.90
16076;DHT22;8142;48.242;11.644;2023-04-03T00:48:47;4.30;99.90
16076;DHT22;8142;48.242;11.644;2023-04-03T00:51:18;4.30;99.90
16076;DHT22;8142;48.242;11.644;2023-04-03T00:53:49;4.40;99.90
16076;DHT22;8142;48.242;11.644;2023-04-03T00:56:18;4.40;99.90
16076;DHT22;8142;48.242;11.644;2023-04-03T00:58:51;4.40;99.90
16076;DHT22;8142;48.242;11.644;2023-04-03T01:01:21;4.40;99.90
16076;DHT22;8142;48.242;11.644;2023-04-03T01:03:48;4.30;99.90
16076;DHT22;8142;48.242;11.644;2023-04-03T01:06:16;4.30;99.90
16076;DHT22;8142;48.242;11.644;2023-04-03T01:08:42;4.30;99.90
16076;DHT22;8142;48.242;11.644;2023-04-03T01:11:09;4.30;99.90
16076;DHT22;8142;48.242;11.644;2023-04-03T01:13:35;4.20;99.90
16076;DHT22;8142;48.242;11.644;2023-04-03T01:16:02;4.20;99.90
16076;DHT22;8142;48.242;11.644;2023-04-03T01:18:29;4.20;99.90
16076;DHT22;8142;48.242;11.644;2023-04-03T01:21:30;4.20;99.90
16076;DHT22;8142;48.242;11.644;2023-04-03T01:26:40;4.50;99.90
16076;DHT22;8142;48.242;11.644;2023-04-03T01:29:07;4.50;99.90
16076;DHT22;8142;48.242;11.644;2023-04-03T01:34:04;4.50;99.90
16076;DHT22;8142;48.242;11.644;2023-04-03T01:36:31;4.50;99.90
16076;DHT22;8142;48.242;11.644;2023-04-03T01:38:58;4.50;99.90
16076;DHT22;8142;48.242;11.644;2023-04-03T01:41:25;4.50;99.90
16076;DHT22;8142;48.242;11.644;2023-04-03T01:43:51;4.50;99.90
16076;DHT22;8142;48.242;11.644;2023-04-03T01:46:18;4.50;99.90
16076;DHT22;8142;48.242;11.644;2023-04-03T01:48:45;4.50;99.90
16076;DHT22;8142;48.242;11.644;2023-04-03T01:51:12;4.50;99.90
16076;DHT22;8142;48.242;11.644;2023-04-03T01:53:38;4.50;99.90
16076;DHT22;8142;48.242;11.644;2023-04-03T01:56:04;4.60;99.90
16076;DHT22;8142;48.242;11.644;2023-04-03T01:58:30;4.60;99.90
16076;DHT22;8142;48.242;11.644;2023-04-03T02:00:56;4.60;99.90
16076;DHT22;8142;48.242;11.644;2023-04-03T02:03:22;4.60;99.90
16076;DHT22;8142;48.242;11.644;2023-04-03T02:05:48;4.60;99.90
16076;DHT22;8142;48.242;11.644;2023-04-03T02:08:13;4.60;99.90
16076;DHT22;8142;48.242;11.644;2023-04-03T02:10:39;4.60;99.90
16076;DHT22;8142;48.242;11.644;2023-04-03T02:13:05;4.60;99.90
16076;DHT22;8142;48.242;11.644;2023-04-03T02:15:31;4.60;99.90
16076;DHT22;8142;48.242;11.644;2023-04-03T02:17:57;4.60;99.90
16076;DHT22;8142;48.242;11.644;2023-04-03T02:20:23;4.60;99.90
16076;DHT22;8142;48.242;11.644;2023-04-03T02:22:49;4.60;99.90
16076;DHT22;8142;48.242;11.644;2023-04-03T02:25:15;4.60;99.90
16076;DHT22;8142;48.242;11.644;2023-04-03T02:27:41;4.60;99.90
16076;DHT22;8142;48.242;11.644;2023-04-03T02:30:07;4.60;99.90
16076;DHT22;8142;48.242;11.644;2023-04-03T02:32:35;4.60;99.90
16076;DHT22;8142;48.242;11.644;2023-04-03T02:35:00;4.60;99.90
16076;DHT22;8142;48.242;11.644;2023-04-03T02:37:26;4.60;99.90
16076;DHT22;8142;48.242;11.644;2023-04-03T02:39:52;4.60;99.90
16076;DHT22;8142;48.242;11.644;2023-04-03T02:42:18;4.60;99.90
16076;DHT22;8142;48.242;11.644;2023-04-03T02:44:43;4.60;99.90
16076;DHT22;8142;48.242;11.644;2023-04-03T02:47:10;4.60;99.90
16076;DHT22;8142;48.242;11.644;2023-04-03T02:49:36;4.60;99.90
16076;DHT22;8142;48.242;11.644;2023-04-03T02:52:02;4.60;99.90
16076;DHT22;8142;48.242;11.644;2023-04-03T02:54:28;4.60;99.90
16076;DHT22;8142;48.242;11.644;2023-04-03T02:56:57;4.60;99.90
16076;DHT22;8142;48.242;11.644;2023-04-03T02:59:23;4.60;99.90
16076;DHT22;8142;48.242;11.644;2023-04-03T03:01:49;4.60;99.90
16076;DHT22;8142;48.242;11.644;2023-04-03T03:04:15;4.60;99.90
16076;DHT22;8142;48.242;11.644;2023-04-03T03:06:41;4.50;99.90
16076;DHT22;8142;48.242;11.644;2023-04-03T03:09:07;4.40;99.90
16076;DHT22;8142;48.242;11.644;2023-04-03T03:11:33;4.30;99.90
16076;DHT22;8142;48.242;11.644;2023-04-03T03:13:59;4.10;99.90
16076;DHT22;8142;48.242;11.644;2023-04-03T03:16:25;4.00;99.90
16076;DHT22;8142;48.242;11.644;2023-04-03T03:18:50;3.90;99.90
16076;DHT22;8142;48.242;11.644;2023-04-03T03:21:16;3.80;99.90
16076;DHT22;8142;48.242;11.644;2023-04-03T03:23:42;3.70;99.90
16076;DHT22;8142;48.242;11.644;2023-04-03T03:26:10;3.60;99.90
16076;DHT22;8142;48.242;11.644;2023-04-03T03:28:37;3.50;99.90
16076;DHT22;8142;48.242;11.644;2023-04-03T03:31:04;3.50;99.90
16076;DHT22;8142;48.242;11.644;2023-04-03T03:33:31;3.40;99.90
16076;DHT22;8142;48.242;11.644;2023-04-03T03:35:57;3.40;99.90
16076;DHT22;8142;48.242;11.644;2023-04-03T03:38:23;3.30;99.90
16076;DHT22;8142;48.242;11.644;2023-04-03T03:40:49;3.30;99.90
16076;DHT22;8142;48.242;11.644;2023-04-03T03:43:16;3.30;99.90
16076;DHT22;8142;48.242;11.644;2023-04-03T03:45:42;3.30;99.90
16076;DHT22;8142;48.242;11.644;2023-04-03T03:48:08;3.20;99.90
16076;DHT22;8142;48.242;11.644;2023-04-03T03:50:34;3.20;99.90
16076;DHT22;8142;48.242;11.644;2023-04-03T03:53:00;3.20;99.90
16076;DHT22;8142;48.242;11.644;2023-04-03T03:55:26;3.00;99.90
16076;DHT22;8142;48.242;11.644;2023-04-03T03:57:52;3.10;99.90
16076;DHT22;8142;48.242;11.644;2023-04-03T04:00:18;3.10;99.90
16076;DHT22;8142;48.242;11.644;2023-04-03T04:02:45;3.10;99.90
16076;DHT22;8142;48.242;11.644;2023-04-03T04:05:11;3.10;99.90
16076;DHT22;8142;48.242;11.644;2023-04-03T04:07:37;3.00;99.90
16076;DHT22;8142;48.242;11.644;2023-04-03T04:10:03;3.10;99.90
16076;DHT22;8142;48.242;11.644;2023-04-03T04:12:30;3.10;99.90
16076;DHT22;8142;48.242;11.644;2023-04-03T04:14:55;3.10;99.90
16076;DHT22;8142;48.242;11.644;2023-04-03T04:17:21;3.10;99.90
16076;DHT22;8142;48.242;11.644;2023-04-03T04:19:47;3.10;99.90
16076;DHT22;8142;48.242;11.644;2023-04-03T04:22:13;3.10;99.90
16076;DHT22;8142;48.242;11.644;2023-04-03T04:24:39;3.10;99.90
16076;DHT22;8142;48.242;11.644;2023-04-03T04:27:05;3.10;99.90
16076;DHT22;8142;48.242;11.644;2023-04-03T04:29:30;3.10;99.90
16076;DHT22;8142;48.242;11.644;2023-04-03T04:32:04;3.10;99.90
16076;DHT22;8142;48.242;11.644;2023-04-03T04:34:30;3.10;99.90
16076;DHT22;8142;48.242;11.644;2023-04-03T04:36:55;3.10;99.90
16076;DHT22;8142;48.242;11.644;2023-04-03T04:39:21;3.10;99.90
16076;DHT22;8142;48.242;11.644;2023-04-03T04:41:47;3.20;99.90
16076;DHT22;8142;48.242;11.644;2023-04-03T04:44:13;3.30;99.90
16076;DHT22;8142;48.242;11.644;2023-04-03T04:46:39;3.30;99.90
16076;DHT22;8142;48.242;11.644;2023-04-03T04:49:05;3.40;99.90
16076;DHT22;8142;48.242;11.644;2023-04-03T04:51:31;3.50;99.90
16076;DHT22;8142;48.242;11.644;2023-04-03T04:53:57;3.70;99.90
16076;DHT22;8142;48.242;11.644;2023-04-03T04:56:22;3.90;99.90
16076;DHT22;8142;48.242;11.644;2023-04-03T04:58:48;4.00;99.90
16076;DHT22;8142;48.242;11.644;2023-04-03T05:01:14;4.10;99.90
16076;DHT22;8142;48.242;11.644;2023-04-03T05:03:40;4.10;99.90
16076;DHT22;8142;48.242;11.644;2023-04-03T05:06:06;4.10;99.90
16076;DHT22;8142;48.242;11.644;2023-04-03T05:08:33;4.10;99.90
16076;DHT22;8142;48.242;11.644;2023-04-03T05:10:58;4.00;99.90
16076;DHT22;8142;48.242;11.644;2023-04-03T05:13:24;4.10;99.90
16076;DHT22;8142;48.242;11.644;2023-04-03T05:15:50;4.10;99.90
16076;DHT22;8142;48.242;11.644;2023-04-03T05:18:16;4.10;99.90
16076;DHT22;8142;48.242;11.644;2023-04-03T05:20:42;4.00;99.90
16076;DHT22;8142;48.242;11.644;2023-04-03T05:23:10;4.00;99.90
16076;DHT22;8142;48.242;11.644;2023-04-03T05:25:38;4.00;99.90
16076;DHT22;8142;48.242;11.644;2023-04-03T05:28:04;4.00;99.90
16076;DHT22;8142;48.242;11.644;2023-04-03T05:30:30;4.00;99.90
16076;DHT22;8142;48.242;11.644;2023-04-03T05:32:56;4.00;99.90
16076;DHT22;8142;48.242;11.644;2023-04-03T05:35:21;3.90;99.90
16076;DHT22;8142;48.242;11.644;2023-04-03T05:37:48;3.90;99.90
16076;DHT22;8142;48.242;11.644;2023-04-03T05:40:13;3.90;99.90
16076;DHT22;8142;48.242;11.644;2023-04-03T05:42:39;3.90;99.90
16076;DHT22;8142;48.242;11.644;2023-04-03T05:45:06;3.90;99.90
16076;DHT22;8142;48.242;11.644;2023-04-03T05:47:32;3.90;99.90
16076;DHT22;8142;48.242;11.644;2023-04-03T05:49:57;3.80;99.90
16076;DHT22;8142;48.242;11.644;2023-04-03T05:52:28;3.80;99.90
16076;DHT22;8142;48.242;11.644;2023-04-03T05:54:54;3.70;99.90
16076;DHT22;8142;48.242;11.644;2023-04-03T05:57:20;3.60;99.90
16076;DHT22;8142;48.242;11.644;2023-04-03T05:59:46;3.50;99.90
16076;DHT22;8142;48.242;11.644;2023-04-03T06:02:15;3.50;99.90
16076;DHT22;8142;48.242;11.644;2023-04-03T06:04:41;3.40;99.90
16076;DHT22;8142;48.242;11.644;2023-04-03T06:07:09;3.40;99.90
16076;DHT22;8142;48.242;11.644;2023-04-03T06:09:36;3.40;99.90
16076;DHT22;8142;48.242;11.644;2023-04-03T06:12:02;3.40;99.90
16076;DHT22;8142;48.242;11.644;2023-04-03T06:14:28;3.30;99.90
16076;DHT22;8142;48.242;11.644;2023-04-03T06:16:54;3.30;99.90
16076;DHT22;8142;48.242;11.644;2023-04-03T06:19:20;3.30;99.90
16076;DHT22;8142;48.242;11.644;2023-04-03T06:21:46;3.30;99.90
16076;DHT22;8142;48.242;11.644;2023-04-03T06:24:15;3.30;99.90
16076;DHT22;8142;48.242;11.644;2023-04-03T06:26:42;3.30;99.90
16076;DHT22;8142;48.242;11.644;2023-04-03T06:29:08;3.30;99.90
16076;DHT22;8142;48.242;11.644;2023-04-03T06:31:35;3.30;99.90
16076;DHT22;8142;48.242;11.644;2023-04-03T06:34:02;3.40;99.90
16076;DHT22;8142;48.242;11.644;2023-04-03T06:36:29;3.40;99.90
16076;DHT22;8142;48.242;11.644;2023-04-03T06:38:55;3.40;99.90
16076;DHT22;8142;48.242;11.644;2023-04-03T06:41:21;3.40;99.90
16076;DHT22;8142;48.242;11.644;2023-04-03T06:43:47;3.40;99.90
16076;DHT22;8142;48.242;11.644;2023-04-03T06:46:21;3.40;99.90
16076;DHT22;8142;48.242;11.644;2023-04-03T06:48:48;3.40;99.90
16076;DHT22;8142;48.242;11.644;2023-04-03T06:53:47;3.50;99.90
16076;DHT22;8142;48.242;11.644;2023-04-03T06:56:14;3.50;99.90
16076;DHT22;8142;48.242;11.644;2023-04-03T06:58:40;3.50;99.90
16076;DHT22;8142;48.242;11.644;2023-04-03T07:01:08;3.50;99.90
16076;DHT22;8142;48.242;11.644;2023-04-03T07:03:35;3.50;99.90
16076;DHT22;8142;48.242;11.644;2023-04-03T07:06:02;3.50;99.90
16076;DHT22;8142;48.242;11.644;2023-04-03T07:08:27;3.60;99.90
16076;DHT22;8142;48.242;11.644;2023-04-03T07:10:54;3.70;99.90
16076;DHT22;8142;48.242;11.644;2023-04-03T07:13:20;3.80;99.90
16076;DHT22;8142;48.242;11.644;2023-04-03T07:15:46;3.80;99.90
16076;DHT22;8142;48.242;11.644;2023-04-03T07:18:12;3.90;99.90
16076;DHT22;8142;48.242;11.644;2023-04-03T07:20:38;3.90;99.90
16076;DHT22;8142;48.242;11.644;2023-04-03T07:23:04;4.00;99.90
16076;DHT22;8142;48.242;11.644;2023-04-03T07:25:30;4.00;99.90
16076;DHT22;8142;48.242;11.644;2023-04-03T07:27:57;4.10;99.90
16076;DHT22;8142;48.242;11.644;2023-04-03T07:30:23;4.10;99.90
16076;DHT22;8142;48.242;11.644;2023-04-03T07:32:49;4.20;99.90
16076;DHT22;8142;48.242;11.644;2023-04-03T07:35:15;4.20;99.90
16076;DHT22;8142;48.242;11.644;2023-04-03T07:37:42;4.20;99.90
16076;DHT22;8142;48.242;11.644;2023-04-03T07:40:08;4.30;99.90
16076;DHT22;8142;48.242;11.644;2023-04-03T07:42:34;4.30;99.90
16076;DHT22;8142;48.242;11.644;2023-04-03T07:45:03;4.40;99.90
16076;DHT22;8142;48.242;11.644;2023-04-03T07:47:29;4.40;99.90
16076;DHT22;8142;48.242;11.644;2023-04-03T07:49:55;4.40;99.90
16076;DHT22;8142;48.242;11.644;2023-04-03T07:52:23;4.50;99.90
16076;DHT22;8142;48.242;11.644;2023-04-03T07:54:49;4.50;99.90
16076;DHT22;8142;48.242;11.644;2023-04-03T07:57:15;4.50;99.90
16076;DHT22;8142;48.242;11.644;2023-04-03T07:59:40;4.60;99.90
16076;DHT22;8142;48.242;11.644;2023-04-03T08:02:11;4.60;99.90
16076;DHT22;8142;48.242;11.644;2023-04-03T08:04:38;4.60;99.90
16076;DHT22;8142;48.242;11.644;2023-04-03T08:07:04;4.70;99.90
16076;DHT22;8142;48.242;11.644;2023-04-03T08:09:30;4.70;99.90
16076;DHT22;8142;48.242;11.644;2023-04-03T08:11:58;4.60;99.90
16076;DHT22;8142;48.242;11.644;2023-04-03T08:14:24;4.70;99.90
16076;DHT22;8142;48.242;11.644;2023-04-03T08:16:50;4.70;99.90
16076;DHT22;8142;48.242;11.644;2023-04-03T08:19:16;4.70;99.90
16076;DHT22;8142;48.242;11.644;2023-04-03T08:21:44;4.80;99.90
16076;DHT22;8142;48.242;11.644;2023-04-03T08:24:10;4.70;99.90
16076;DHT22;8142;48.242;11.644;2023-04-03T08:26:36;4.70;99.90
16076;DHT22;8142;48.242;11.644;2023-04-03T08:29:02;4.70;99.90
16076;DHT22;8142;48.242;11.644;2023-04-03T08:31:28;4.80;99.90
16076;DHT22;8142;48.242;11.644;2023-04-03T08:33:56;4.80;99.90
16076;DHT22;8142;48.242;11.644;2023-04-03T08:36:26;4.80;99.90
16076;DHT22;8142;48.242;11.644;2023-04-03T08:38:54;4.80;99.90
16076;DHT22;8142;48.242;11.644;2023-04-03T08:41:33;4.90;99.90
16076;DHT22;8142;48.242;11.644;2023-04-03T08:44:24;4.90;99.90
16076;DHT22;8142;48.242;11.644;2023-04-03T08:49:43;4.90;99.90
16076;DHT22;8142;48.242;11.644;2023-04-03T08:55:28;5.00;99.90
16076;DHT22;8142;48.242;11.644;2023-04-03T08:58:11;5.00;99.90
16076;DHT22;8142;48.242;11.644;2023-04-03T09:00:50;5.10;99.90
16076;DHT22;8142;48.242;11.644;2023-04-03T09:03:19;5.10;99.90
16076;DHT22;8142;48.242;11.644;2023-04-03T09:08:33;5.20;99.90
16076;DHT22;8142;48.242;11.644;2023-04-03T09:13:57;5.30;99.90
16076;DHT22;8142;48.242;11.644;2023-04-03T09:16:32;5.30;99.90
16076;DHT22;8142;48.242;11.644;2023-04-03T09:21:48;5.30;99.90
16076;DHT22;8142;48.242;11.644;2023-04-03T09:24:15;5.30;99.90
16076;DHT22;8142;48.242;11.644;2023-04-03T09:26:51;5.40;99.90
16076;DHT22;8142;48.242;11.644;2023-04-03T09:29:22;5.40;99.90
16076;DHT22;8142;48.242;11.644;2023-04-03T09:31:52;5.40;99.90
16076;DHT22;8142;48.242;11.644;2023-04-03T09:34:36;5.40;99.90
16076;DHT22;8142;48.242;11.644;2023-04-03T09:37:05;5.40;99.90
16076;DHT22;8142;48.242;11.644;2023-04-03T09:39:53;5.40;99.90
16076;DHT22;8142;48.242;11.644;2023-04-03T09:42:21;5.40;99.90
16076;DHT22;8142;48.242;11.644;2023-04-03T09:44:59;5.40;99.90
16076;DHT22;8142;48.242;11.644;2023-04-03T09:50:15;5.40;99.90
16076;DHT22;8142;48.242;11.644;2023-04-03T09:52:48;5.40;99.90
16076;DHT22;8142;48.242;11.644;2023-04-03T09:55:22;5.30;99.90
16076;DHT22;8142;48.242;11.644;2023-04-03T09:58:04;5.30;99.90
16076;DHT22;8142;48.242;11.644;2023-04-03T10:00:36;5.20;99.90
16076;DHT22;8142;48.242;11.644;2023-04-03T10:03:03;5.20;99.90
16076;DHT22;8142;48.242;11.644;2023-04-03T10:05:34;5.10;99.90
16076;DHT22;8142;48.242;11.644;2023-04-03T10:10:42;5.10;99.90
16076;DHT22;8142;48.242;11.644;2023-04-03T10:13:17;5.10;99.90
16076;DHT22;8142;48.242;11.644;2023-04-03T10:16:12;5.10;99.90
16076;DHT22;8142;48.242;11.644;2023-04-03T10:18:49;5.10;99.90
16076;DHT22;8142;48.242;11.644;2023-04-03T10:21:39;5.10;99.90
16076;DHT22;8142;48.242;11.644;2023-04-03T10:26:58;5.10;99.90
16076;DHT22;8142;48.242;11.644;2023-04-03T10:29:51;5.10;99.90
16076;DHT22;8142;48.242;11.644;2023-04-03T10:32:26;5.00;99.90
16076;DHT22;8142;48.242;11.644;2023-04-03T10:35:25;5.00;99.90
16076;DHT22;8142;48.242;11.644;2023-04-03T10:38:09;5.00;99.90
16076;DHT22;8142;48.242;11.644;2023-04-03T10:41:10;5.00;99.90
16076;DHT22;8142;48.242;11.644;2023-04-03T10:44:08;4.90;99.90
16076;DHT22;8142;48.242;11.644;2023-04-03T10:46:52;4.90;99.90
16076;DHT22;8142;48.242;11.644;2023-04-03T10:49:27;4.90;99.90
16076;DHT22;8142;48.242;11.644;2023-04-03T10:52:02;4.90;99.90
16076;DHT22;8142;48.242;11.644;2023-04-03T10:54:39;4.90;99.90
16076;DHT22;8142;48.242;11.644;2023-04-03T10:57:09;4.90;99.90
16076;DHT22;8142;48.242;11.644;2023-04-03T10:59:42;5.00;99.90
16076;DHT22;8142;48.242;11.644;2023-04-03T11:05:02;5.00;99.90
16076;DHT22;8142;48.242;11.644;2023-04-03T11:07:38;5.00;99.90
16076;DHT22;8142;48.242;11.644;2023-04-03T11:10:14;5.00;99.90
16076;DHT22;8142;48.242;11.644;2023-04-03T11:12:53;5.10;99.90
16076;DHT22;8142;48.242;11.644;2023-04-03T11:15:23;5.10;99.90
16076;DHT22;8142;48.242;11.644;2023-04-03T11:18:02;5.10;99.90
16076;DHT22;8142;48.242;11.644;2023-04-03T11:20:31;5.10;99.90
16076;DHT22;8142;48.242;11.644;2023-04-03T11:23:21;5.10;99.90
16076;DHT22;8142;48.242;11.644;2023-04-03T11:25:52;5.20;99.90
16076;DHT22;8142;48.242;11.644;2023-04-03T11:28:19;5.20;99.90
16076;DHT22;8142;48.242;11.644;2023-04-03T11:31:01;5.30;99.90
16076;DHT22;8142;48.242;11.644;2023-04-03T11:36:07;5.40;99.90
16076;DHT22;8142;48.242;11.644;2023-04-03T11:38:37;5.40;99.90
16076;DHT22;8142;48.242;11.644;2023-04-03T11:41:07;5.50;99.90
16076;DHT22;8142;48.242;11.644;2023-04-03T11:43:37;5.50;99.90
16076;DHT22;8142;48.242;11.644;2023-04-03T11:46:06;5.60;99.90
16076;DHT22;8142;48.242;11.644;2023-04-03T11:53:42;5.70;99.90
16076;DHT22;8142;48.242;11.644;2023-04-03T12:01:56;5.80;99.90
16076;DHT22;8142;48.242;11.644;2023-04-03T12:04:25;5.90;99.90
16076;DHT22;8142;48.242;11.644;2023-04-03T12:07:15;5.90;99.90
16076;DHT22;8142;48.242;11.644;2023-04-03T12:12:34;6.00;99.90
16076;DHT22;8142;48.242;11.644;2023-04-03T12:15:38;6.10;99.90
16076;DHT22;8142;48.242;11.644;2023-04-03T12:18:53;6.10;99.90
16076;DHT22;8142;48.242;11.644;2023-04-03T12:26:36;6.30;99.90
16076;DHT22;8142;48.242;11.644;2023-04-03T12:29:21;6.40;99.90
16076;DHT22;8142;48.242;11.644;2023-04-03T12:38:14;6.60;99.90
16076;DHT22;8142;48.242;11.644;2023-04-03T12:46:11;6.70;99.90
16076;DHT22;8142;48.242;11.644;2023-04-03T12:51:18;6.70;99.90
16076;DHT22;8142;48.242;11.644;2023-04-03T12:53:45;6.60;99.90
16076;DHT22;8142;48.242;11.644;2023-04-03T12:56:22;6.60;99.90
16076;DHT22;8142;48.242;11.644;2023-04-03T12:58:51;6.60;99.90
16076;DHT22;8142;48.242;11.644;2023-04-03T13:01:20;6.50;99.90
16076;DHT22;8142;48.242;11.644;2023-04-03T13:04:05;6.50;99.90
16076;DHT22;8142;48.242;11.644;2023-04-03T13:06:36;6.50;99.90
16076;DHT22;8142;48.242;11.644;2023-04-03T13:09:03;6.50;99.90
16076;DHT22;8142;48.242;11.644;2023-04-03T13:11:40;6.50;99.90
16076;DHT22;8142;48.242;11.644;2023-04-03T13:14:24;6.50;99.90
16076;DHT22;8142;48.242;11.644;2023-04-03T13:19:29;6.50;99.90
16076;DHT22;8142;48.242;11.644;2023-04-03T13:22:02;6.50;99.90
16076;DHT22;8142;48.242;11.644;2023-04-03T13:24:33;6.50;99.90
16076;DHT22;8142;48.242;11.644;2023-04-03T13:27:00;6.60;99.90
16076;DHT22;8142;48.242;11.644;2023-04-03T13:29:35;6.60;99.90
16076;DHT22;8142;48.242;11.644;2023-04-03T13:32:03;6.60;99.90
16076;DHT22;8142;48.242;11.644;2023-04-03T13:34:41;6.60;99.90
16076;DHT22;8142;48.242;11.644;2023-04-03T13:37:11;6.60;99.90
16076;DHT22;8142;48.242;11.644;2023-04-03T13:39:44;6.60;99.90
16076;DHT22;8142;48.242;11.644;2023-04-03T13:42:23;6.60;99.90
16076;DHT22;8142;48.242;11.644;2023-04-03T13:44:49;6.60;99.90
16076;DHT22;8142;48.242;11.644;2023-04-03T13:47:39;6.60;99.90
16076;DHT22;8142;48.242;11.644;2023-04-03T13:52:42;6.70;99.90
16076;DHT22;8142;48.242;11.644;2023-04-03T14:03:00;6.70;99.90
16076;DHT22;8142;48.242;11.644;2023-04-03T14:05:26;6.70;99.90
16076;DHT22;8142;48.242;11.644;2023-04-03T14:07:53;6.70;99.90
16076;DHT22;8142;48.242;11.644;2023-04-03T14:10:20;6.70;99.90
16076;DHT22;8142;48.242;11.644;2023-04-03T14:12:47;6.70;99.90
16076;DHT22;8142;48.242;11.644;2023-04-03T14:15:28;6.80;99.90
16076;DHT22;8142;48.242;11.644;2023-04-03T14:17:54;6.80;99.90
16076;DHT22;8142;48.242;11.644;2023-04-03T14:20:24;6.80;99.90
16076;DHT22;8142;48.242;11.644;2023-04-03T14:22:52;6.90;99.90
16076;DHT22;8142;48.242;11.644;2023-04-03T14:25:20;7.00;99.90
16076;DHT22;8142;48.242;11.644;2023-04-03T14:27:48;7.10;99.90
16076;DHT22;8142;48.242;11.644;2023-04-03T14:32:45;7.10;99.90
16076;DHT22;8142;48.242;11.644;2023-04-03T14:35:11;7.10;99.80
16076;DHT22;8142;48.242;11.644;2023-04-03T14:37:37;7.10;99.20
16076;DHT22;8142;48.242;11.644;2023-04-03T14:40:06;7.00;99.80
16076;DHT22;8142;48.242;11.644;2023-04-03T14:42:35;7.00;99.40
16076;DHT22;8142;48.242;11.644;2023-04-03T14:45:05;6.90;99.80
16076;DHT22;8142;48.242;11.644;2023-04-03T14:47:31;6.90;99.10
16076;DHT22;8142;48.242;11.644;2023-04-03T14:50:01;6.90;99.00
16076;DHT22;8142;48.242;11.644;2023-04-03T14:52:34;6.80;98.40
16076;DHT22;8142;48.242;11.644;2023-04-03T14:55:03;6.80;98.00
16076;DHT22;8142;48.242;11.644;2023-04-03T14:57:29;6.70;98.60
16076;DHT22;8142;48.242;11.644;2023-04-03T14:59:56;6.70;98.60
16076;DHT22;8142;48.242;11.644;2023-04-03T15:04:55;6.60;98.20
16076;DHT22;8142;48.242;11.644;2023-04-03T15:07:23;6.60;97.20
16076;DHT22;8142;48.242;11.644;2023-04-03T15:09:49;6.50;96.50
16076;DHT22;8142;48.242;11.644;2023-04-03T15:12:15;6.40;96.40
16076;DHT22;8142;48.242;11.644;2023-04-03T15:14:41;6.30;96.70
16076;DHT22;8142;48.242;11.644;2023-04-03T15:17:14;6.30;97.00
16076;DHT22;8142;48.242;11.644;2023-04-03T15:19:40;6.20;96.40
16076;DHT22;8142;48.242;11.644;2023-04-03T15:22:06;6.20;96.60
16076;DHT22;8142;48.242;11.644;2023-04-03T15:24:32;6.20;96.40
16076;DHT22;8142;48.242;11.644;2023-04-03T15:26:59;6.20;96.60
16076;DHT22;8142;48.242;11.644;2023-04-03T15:29:26;6.10;95.90
16076;DHT22;8142;48.242;11.644;2023-04-03T15:31:52;6.10;95.50
16076;DHT22;8142;48.242;11.644;2023-04-03T15:34:19;6.00;95.30
16076;DHT22;8142;48.242;11.644;2023-04-03T15:36:46;6.00;95.90
16076;DHT22;8142;48.242;11.644;2023-04-03T15:39:12;6.00;97.00
16076;DHT22;8142;48.242;11.644;2023-04-03T15:41:38;6.00;98.10
16076;DHT22;8142;48.242;11.644;2023-04-03T15:44:04;5.90;98.40
16076;DHT22;8142;48.242;11.644;2023-04-03T15:46:30;5.90;98.50
16076;DHT22;8142;48.242;11.644;2023-04-03T15:48:56;5.80;98.60
16076;DHT22;8142;48.242;11.644;2023-04-03T15:51:22;5.80;98.50
16076;DHT22;8142;48.242;11.644;2023-04-03T15:53:51;5.70;98.10
16076;DHT22;8142;48.242;11.644;2023-04-03T15:56:16;5.80;98.50
16076;DHT22;8142;48.242;11.644;2023-04-03T15:58:42;5.70;98.70
16076;DHT22;8142;48.242;11.644;2023-04-03T16:01:09;5.70;98.50
16076;DHT22;8142;48.242;11.644;2023-04-03T16:03:36;5.70;97.70
16076;DHT22;8142;48.242;11.644;2023-04-03T16:06:04;5.60;98.00
16076;DHT22;8142;48.242;11.644;2023-04-03T16:08:30;5.60;97.70
16076;DHT22;8142;48.242;11.644;2023-04-03T16:10:56;5.60;97.70
16076;DHT22;8142;48.242;11.644;2023-04-03T16:13:22;5.50;97.80
16076;DHT22;8142;48.242;11.644;2023-04-03T16:15:48;5.50;98.20
16076;DHT22;8142;48.242;11.644;2023-04-03T16:18:14;5.40;98.10
16076;DHT22;8142;48.242;11.644;2023-04-03T16:20:41;5.40;97.80
16076;DHT22;8142;48.242;11.644;2023-04-03T16:23:07;5.40;97.50
16076;DHT22;8142;48.242;11.644;2023-04-03T16:25:32;5.30;97.80
16076;DHT22;8142;48.242;11.644;2023-04-03T16:27:58;5.30;97.30
16076;DHT22;8142;48.242;11.644;2023-04-03T16:30:24;5.30;97.40
16076;DHT22;8142;48.242;11.644;2023-04-03T16:32:50;5.30;97.70
16076;DHT22;8142;48.242;11.644;2023-04-03T16:35:16;5.30;98.30
16076;DHT22;8142;48.242;11.644;2023-04-03T16:37:42;5.20;98.70
16076;DHT22;8142;48.242;11.644;2023-04-03T16:40:09;5.20;98.60
16076;DHT22;8142;48.242;11.644;2023-04-03T16:42:35;5.20;99.00
16076;DHT22;8142;48.242;11.644;2023-04-03T16:45:01;5.20;99.80
16076;DHT22;8142;48.242;11.644;2023-04-03T16:47:29;5.20;99.90
16076;DHT22;8142;48.242;11.644;2023-04-03T16:49:55;5.20;99.90
16076;DHT22;8142;48.242;11.644;2023-04-03T16:52:21;5.20;99.90
16076;DHT22;8142;48.242;11.644;2023-04-03T16:54:47;5.30;99.80
16076;DHT22;8142;48.242;11.644;2023-04-03T16:57:13;5.30;99.90
16076;DHT22;8142;48.242;11.644;2023-04-03T16:59:38;5.40;99.50
16076;DHT22;8142;48.242;11.644;2023-04-03T17:02:04;5.40;99.40
16076;DHT22;8142;48.242;11.644;2023-04-03T17:04:30;5.40;99.30
16076;DHT22;8142;48.242;11.644;2023-04-03T17:06:56;5.40;99.30
16076;DHT22;8142;48.242;11.644;2023-04-03T17:09:22;5.50;99.90
16076;DHT22;8142;48.242;11.644;2023-04-03T17:11:48;5.40;99.90
16076;DHT22;8142;48.242;11.644;2023-04-03T17:14:14;5.50;99.90
16076;DHT22;8142;48.242;11.644;2023-04-03T17:16:40;5.50;99.90
16076;DHT22;8142;48.242;11.644;2023-04-03T17:19:06;5.50;99.90
16076;DHT22;8142;48.242;11.644;2023-04-03T17:21:32;5.40;99.90
16076;DHT22;8142;48.242;11.644;2023-04-03T17:24:04;5.40;99.90